TimeCST,TemperatureF,Dew PointF,Humidity,Sea Level PressureIn,VisibilityMPH,Wind Direction,Wind SpeedMPH,Gust SpeedMPH,PrecipitationIn,Events,Conditions,WindDirDegrees,DateUTC
12:54 AM,37.0,33.1,86,30.38,10.0,North,15.0,21.9,0.00,Rain,Light Rain,360,2013-11-12 06:54:00
1:43 AM,37.4,33.8,87,30.40,10.0,North,11.5,21.9,0.00,Rain,Light Rain,360,2013-11-12 07:43:00
1:52 AM,37.4,32.0,81,30.40,10.0,North,12.7,19.6,0.00,,Overcast,10,2013-11-12 07:52:00
1:54 AM,37.0,32.0,82,30.41,10.0,North,13.8,19.6,0.00,,Overcast,360,2013-11-12 07:54:00
2:10 AM,35.6,30.2,81,30.42,10.0,North,13.8,21.9,N/A,,Overcast,10,2013-11-12 08:10:00
2:54 AM,35.1,30.0,82,30.44,8.0,North,16.1,23.0,0.00,Snow,Light Snow,10,2013-11-12 08:54:00
3:09 AM,35.6,28.4,75,30.45,10.0,North,15.0,24.2,0.00,,Overcast,10,2013-11-12 09:09:00
3:54 AM,35.1,28.0,76,30.47,10.0,North,12.7,-,0.00,,Overcast,10,2013-11-12 09:54:00
4:54 AM,34.0,28.0,79,30.52,10.0,North,9.2,-,N/A,,Overcast,360,2013-11-12 10:54:00
5:54 AM,32.0,27.0,82,30.55,10.0,North,9.2,-,N/A,,Scattered Clouds,360,2013-11-12 11:54:00
6:54 AM,30.9,25.0,79,30.60,10.0,North,10.4,16.1,N/A,,Clear,350,2013-11-12 12:54:00
7:54 AM,32.0,24.1,73,30.64,10.0,North,9.2,20.7,N/A,,Clear,350,2013-11-12 13:54:00
8:54 AM,34.0,25.0,70,30.66,10.0,North,11.5,-,N/A,,Clear,350,2013-11-12 14:54:00
9:54 AM,37.0,25.0,62,30.66,10.0,NNW,11.5,-,N/A,,Partly Cloudy,330,2013-11-12 15:54:00
10:54 AM,37.0,21.9,54,30.67,10.0,NNW,16.1,20.7,N/A,,Partly Cloudy,340,2013-11-12 16:54:00
11:54 AM,39.9,21.0,47,30.66,10.0,North,12.7,20.7,N/A,,Partly Cloudy,360,2013-11-12 17:54:00
12:54 PM,39.9,21.9,49,30.65,10.0,North,12.7,23.0,N/A,,Mostly Cloudy,360,2013-11-12 18:54:00
1:54 PM,39.0,21.0,49,30.66,10.0,NNW,13.8,19.6,N/A,,Overcast,340,2013-11-12 19:54:00
2:54 PM,37.9,21.0,51,30.66,10.0,North,12.7,-,N/A,,Overcast,10,2013-11-12 20:54:00
3:54 PM,37.0,21.9,54,30.67,10.0,North,6.9,-,N/A,,Overcast,360,2013-11-12 21:54:00
4:54 PM,36.0,21.0,55,30.68,10.0,North,8.1,-,N/A,,Mostly Cloudy,350,2013-11-12 22:54:00
5:54 PM,34.0,21.9,61,30.68,10.0,NNW,8.1,-,N/A,,Partly Cloudy,340,2013-11-12 23:54:00
6:54 PM,32.0,21.9,66,30.69,10.0,NW,5.8,-,N/A,,Clear,320,2013-11-13 00:54:00
7:54 PM,30.9,21.0,67,30.70,10.0,NNW,11.5,-,N/A,,Clear,340,2013-11-13 01:54:00
8:54 PM,30.0,21.0,69,30.71,10.0,North,5.8,-,N/A,,Clear,350,2013-11-13 02:54:00
9:54 PM,28.9,21.0,72,30.71,10.0,North,5.8,-,N/A,,Clear,360,2013-11-13 03:54:00
10:54 PM,28.0,19.9,72,30.71,10.0,North,4.6,-,N/A,,Clear,350,2013-11-13 04:54:00
11:54 PM,27.0,19.9,75,30.70,10.0,North,4.6,-,N/A,,Clear,350,2013-11-13 05:54:00